createdAt,value
2022-11-24T00:00:37.988Z,74.62
2022-11-24T00:06:14.860Z,74.01
2022-11-24T00:11:46.164Z,74.29
2022-11-24T00:17:16.974Z,74.92
2022-11-24T00:22:48.065Z,74.21
2022-11-24T00:28:19.533Z,74.54
2022-11-24T00:33:52.648Z,74.76
2022-11-24T00:39:24.005Z,74.36
2022-11-24T00:44:55.047Z,74.00
2022-11-24T00:50:26.394Z,74.77
2022-11-24T00:55:58.168Z,73.87
2022-11-24T01:01:31.309Z,74.33
2022-11-24T01:07:02.978Z,73.99
2022-11-24T01:12:34.969Z,73.83
2022-11-24T01:18:06.247Z,74.14
2022-11-24T01:23:37.321Z,73.96
2022-11-24T01:29:10.220Z,73.72
2022-11-24T01:34:41.634Z,73.79
2022-11-24T01:40:12.904Z,73.59
2022-11-24T01:45:44.907Z,74.16
2022-11-24T01:51:28.064Z,74.17
2022-11-24T01:57:02.868Z,73.72
2022-11-24T02:02:34.217Z,73.84
2022-11-24T02:08:17.860Z,73.46
2022-11-24T02:13:50.657Z,73.56
2022-11-24T02:19:53.875Z,73.90
2022-11-24T02:26:02.044Z,73.48
2022-11-24T02:31:33.837Z,73.98
2022-11-24T02:37:04.961Z,73.60
2022-11-24T02:42:42.362Z,73.60
2022-11-24T02:48:15.134Z,73.88
2022-11-24T02:53:46.369Z,73.71
2022-11-24T02:59:17.713Z,73.76
2022-11-24T03:04:48.690Z,73.83
2022-11-24T03:10:20.093Z,73.70
2022-11-24T03:15:51.384Z,73.49
2022-11-24T03:21:22.797Z,73.88
2022-11-24T03:26:54.201Z,73.36
2022-11-24T03:32:25.941Z,73.70
2022-11-24T03:37:57.095Z,73.78
2022-11-24T03:43:28.389Z,73.58
2022-11-24T03:48:59.619Z,73.98
2022-11-24T03:54:31.095Z,73.58
2022-11-24T04:00:02.379Z,73.38
2022-11-24T04:05:36.640Z,73.47
2022-11-24T04:11:07.599Z,73.89
2022-11-24T04:16:38.930Z,73.78
2022-11-24T04:22:10.083Z,73.41
2022-11-24T04:27:41.066Z,73.96
2022-11-24T04:33:12.542Z,73.20
2022-11-24T04:39:24.541Z,73.53
2022-11-24T04:44:35.799Z,73.29
2022-11-24T04:50:07.874Z,72.96
2022-11-24T04:55:39.980Z,72.96
2022-11-24T05:01:10.955Z,72.66
2022-11-24T05:06:42.023Z,73.89
2022-11-24T05:12:13.175Z,73.90
2022-11-24T05:17:44.364Z,73.09
2022-11-24T05:29:17.536Z,73.81
2022-11-24T05:34:50.734Z,73.60
2022-11-24T05:40:21.731Z,74.12
2022-11-24T05:45:52.903Z,73.77
2022-11-24T05:51:23.918Z,74.19
2022-11-24T05:56:56.468Z,73.49
2022-11-24T06:02:27.702Z,73.53
2022-11-24T06:08:00.689Z,73.84
2022-11-24T06:13:31.801Z,73.88
2022-11-24T06:19:03.384Z,74.26
2022-11-24T06:24:34.802Z,73.89
2022-11-24T06:30:06.633Z,74.15
2022-11-24T06:35:37.718Z,73.93
2022-11-24T06:41:12.752Z,74.18
2022-11-24T06:46:43.813Z,73.97
2022-11-24T06:52:15.346Z,73.67
2022-11-24T06:57:46.432Z,74.31
2022-11-24T07:03:19.421Z,74.06
2022-11-24T07:08:51.255Z,74.64
2022-11-24T07:14:22.452Z,74.65
2022-11-24T07:19:53.609Z,74.46
2022-11-24T07:25:28.071Z,74.83
2022-11-24T07:30:59.239Z,74.39
2022-11-24T07:36:30.347Z,74.50
2022-11-24T07:42:01.758Z,74.20
2022-11-24T07:47:32.854Z,74.51
2022-11-24T07:53:04.691Z,74.17
2022-11-24T07:58:37.330Z,74.91
2022-11-24T08:04:08.506Z,74.56
2022-11-24T08:09:39.578Z,74.65
2022-11-24T08:15:11.647Z,74.51
2022-11-24T08:20:42.913Z,74.38
2022-11-24T08:26:19.006Z,74.48
2022-11-24T08:31:50.243Z,74.60
2022-11-24T08:37:21.546Z,74.95
2022-11-24T08:42:53.085Z,74.32
2022-11-24T08:48:24.271Z,74.55
2022-11-24T08:54:00.040Z,74.45
2022-11-24T08:59:31.356Z,74.70
2022-11-24T09:05:03.211Z,74.46
2022-11-24T09:10:33.990Z,74.79
2022-11-24T09:16:11.963Z,74.44
2022-11-24T09:21:43.139Z,74.56
2022-11-24T09:27:14.272Z,74.52
2022-11-24T09:32:45.685Z,75.08
2022-11-24T09:38:17.144Z,74.36
2022-11-24T09:44:05.264Z,74.24
2022-11-24T09:49:46.128Z,74.74
2022-11-24T09:55:45.294Z,74.75
2022-11-24T10:01:39.581Z,73.92
2022-11-24T10:07:23.600Z,74.74
2022-11-24T10:13:25.624Z,74.54
2022-11-24T10:19:05.683Z,75.02
2022-11-24T10:25:12.628Z,74.46
2022-11-24T10:30:43.793Z,74.41
2022-11-24T10:36:21.247Z,74.47
2022-11-24T10:41:56.662Z,74.61
2022-11-24T10:47:28.506Z,74.32
2022-11-24T10:53:19.284Z,74.16
2022-11-24T10:58:50.236Z,74.44
2022-11-24T11:04:31.685Z,74.25
2022-11-24T11:10:20.012Z,74.08
2022-11-24T11:15:51.381Z,74.40
2022-11-24T11:21:29.051Z,74.54
2022-11-24T11:27:05.437Z,74.24
2022-11-24T11:38:43.458Z,73.85
2022-11-24T11:44:27.317Z,73.96
2022-11-24T11:49:58.578Z,74.47
2022-11-24T11:55:48.303Z,73.96
2022-11-24T12:01:26.835Z,74.57
2022-11-24T12:07:05.508Z,74.09
2022-11-24T12:13:17.732Z,73.88
2022-11-24T12:19:05.546Z,74.57
2022-11-24T12:24:45.404Z,74.36
2022-11-24T12:30:18.473Z,74.54
2022-11-24T12:35:54.655Z,75.02
2022-11-24T12:41:42.434Z,74.46
2022-11-24T12:47:27.173Z,74.55
2022-11-24T12:53:05.748Z,74.36
2022-11-24T12:58:54.831Z,74.36
2022-11-24T13:04:31.159Z,74.92
2022-11-24T13:10:46.529Z,74.73
2022-11-24T13:22:06.919Z,74.29
2022-11-24T13:27:44.222Z,73.98
2022-11-24T13:33:17.049Z,74.56
2022-11-24T13:38:48.180Z,74.92
2022-11-24T13:44:25.172Z,74.49
2022-11-24T13:49:56.198Z,74.86
2022-11-24T13:55:39.160Z,74.75
2022-11-24T14:01:22.461Z,75.00
2022-11-24T14:06:53.649Z,74.97
2022-11-24T14:12:25.890Z,74.98
2022-11-24T14:17:57.148Z,75.33
2022-11-24T14:23:28.910Z,74.77
2022-11-24T14:29:11.479Z,75.37
2022-11-24T14:34:42.467Z,75.30
2022-11-24T14:40:52.610Z,75.25
2022-11-24T14:46:23.697Z,74.94
2022-11-24T14:51:58.643Z,75.39
2022-11-24T14:57:36.455Z,75.58
2022-11-24T15:03:17.713Z,75.11
2022-11-24T15:08:49.872Z,74.94
2022-11-24T15:14:29.971Z,75.42
2022-11-24T15:20:23.926Z,75.46
2022-11-24T15:25:55.009Z,75.64
2022-11-24T15:31:26.358Z,75.66
2022-11-24T15:36:57.372Z,75.60
2022-11-24T15:42:28.593Z,75.91
2022-11-24T15:47:59.713Z,76.00
2022-11-24T15:53:38.326Z,76.08
2022-11-24T15:59:18.796Z,75.97
2022-11-24T16:04:52.256Z,76.39
2022-11-24T16:10:33.459Z,76.72
2022-11-24T16:16:04.820Z,76.60
2022-11-24T16:21:36.109Z,76.46
2022-11-24T16:27:07.512Z,76.96
2022-11-24T16:32:38.879Z,77.37
2022-11-24T16:38:20.296Z,76.81
2022-11-24T16:43:51.404Z,76.90
2022-11-24T16:49:22.544Z,76.94
2022-11-24T16:54:54.046Z,77.29
2022-11-24T17:00:25.429Z,77.71
2022-11-24T17:05:58.203Z,77.75
2022-11-24T17:11:29.531Z,77.47
2022-11-24T17:17:00.754Z,77.23
2022-11-24T17:22:31.813Z,77.54
2022-11-24T17:28:03.119Z,77.58
2022-11-24T17:33:35.572Z,76.76
2022-11-24T17:39:09.710Z,77.22
2022-11-24T17:44:41.611Z,77.23
2022-11-24T17:50:12.916Z,77.20
2022-11-24T17:55:43.924Z,77.29
2022-11-24T18:01:15.302Z,77.03
2022-11-24T18:06:46.440Z,77.45
2022-11-24T18:12:17.507Z,76.93
2022-11-24T18:17:52.573Z,77.33
2022-11-24T18:23:23.735Z,77.11
2022-11-24T18:28:54.684Z,77.28
2022-11-24T18:34:26.142Z,77.13
2022-11-24T18:39:57.350Z,77.15
2022-11-24T18:45:28.749Z,76.77
2022-11-24T18:51:00.172Z,77.17
2022-11-24T18:56:31.735Z,77.43
2022-11-24T19:02:03.393Z,77.06
2022-11-24T19:07:34.989Z,77.24
2022-11-24T19:13:06.537Z,77.03
2022-11-24T19:18:38.276Z,77.16
2022-11-24T19:24:14.885Z,77.49
2022-11-24T19:29:55.962Z,77.46
2022-11-24T19:35:29.885Z,77.48
2022-11-24T19:41:08.369Z,77.17
2022-11-24T19:46:42.414Z,77.45
2022-11-24T19:52:16.155Z,77.13
2022-11-24T19:57:54.864Z,77.03
2022-11-24T20:03:31.370Z,77.91
2022-11-24T20:09:10.866Z,77.58
2022-11-24T20:14:42.051Z,77.57
2022-11-24T20:20:13.633Z,77.08
2022-11-24T20:25:45.026Z,77.47
2022-11-24T20:31:19.660Z,77.19
2022-11-24T20:36:53.213Z,77.16
2022-11-24T20:42:24.733Z,77.25
2022-11-24T20:47:55.957Z,76.96
2022-11-24T20:53:26.988Z,77.44
2022-11-24T20:58:59.649Z,77.42
2022-11-24T21:04:30.758Z,77.15
2022-11-24T21:10:02.568Z,77.21
2022-11-24T21:15:33.869Z,77.43
2022-11-24T21:21:05.299Z,77.11
2022-11-24T21:26:37.459Z,77.45
2022-11-24T21:32:08.859Z,77.48
2022-11-24T21:37:40.074Z,77.81
2022-11-24T21:43:11.222Z,77.57
2022-11-24T21:48:42.924Z,78.25
2022-11-24T21:54:14.289Z,77.40
2022-11-24T21:59:45.717Z,77.70
2022-11-24T22:05:16.807Z,77.89
2022-11-24T22:10:47.938Z,77.76
2022-11-24T22:16:21.396Z,77.39
2022-11-24T22:21:52.774Z,77.90
2022-11-24T22:27:23.923Z,77.13
2022-11-24T22:32:54.859Z,77.57
2022-11-24T22:38:27.271Z,77.52
2022-11-24T22:43:58.265Z,78.01
2022-11-24T22:49:30.813Z,77.82
2022-11-24T22:55:01.596Z,77.87
2022-11-24T23:00:33.003Z,78.02
2022-11-24T23:06:13.672Z,77.65
2022-11-24T23:11:44.717Z,77.82
2022-11-24T23:17:16.239Z,77.98
2022-11-24T23:22:47.633Z,77.28
2022-11-24T23:28:18.625Z,77.38
2022-11-24T23:33:50.315Z,77.61
2022-11-24T23:39:21.579Z,77.89
2022-11-24T23:44:53.056Z,77.91
2022-11-24T23:50:24.384Z,77.60
2022-11-24T23:55:56.008Z,77.78
